createdAt,value
2022-11-24T00:00:29.032Z,94868.00
2022-11-24T00:04:31.967Z,94862.00
2022-11-24T00:08:36.713Z,94872.00
2022-11-24T00:12:39.382Z,94880.00
2022-11-24T00:16:42.138Z,94874.00
2022-11-24T00:20:52.413Z,94877.00
2022-11-24T00:24:56.449Z,94892.00
2022-11-24T00:29:00.953Z,94883.00
2022-11-24T00:33:03.772Z,94890.00
2022-11-24T00:37:06.515Z,94904.00
2022-11-24T00:41:10.527Z,94904.00
2022-11-24T00:45:14.174Z,94913.00
2022-11-24T00:49:17.085Z,94909.00
2022-11-24T00:53:19.750Z,94914.00
2022-11-24T00:57:23.847Z,94921.00
2022-11-24T01:01:28.841Z,94937.00
2022-11-24T01:05:31.594Z,94933.00
2022-11-24T01:09:34.317Z,94938.00
2022-11-24T01:13:38.712Z,94953.00
2022-11-24T01:17:41.418Z,94964.00
2022-11-24T01:21:44.190Z,94954.00
2022-11-24T01:25:46.949Z,94973.00
2022-11-24T01:29:51.035Z,94983.00
2022-11-24T01:33:54.360Z,94988.00
2022-11-24T01:37:57.145Z,94985.00
2022-11-24T01:42:01.968Z,94989.00
2022-11-24T01:46:16.468Z,94997.00
2022-11-24T01:50:19.400Z,95000.00
2022-11-24T01:54:25.918Z,95015.00
2022-11-24T01:58:32.434Z,95028.00
2022-11-24T02:02:36.904Z,95021.00
2022-11-24T02:06:41.901Z,95027.00
2022-11-24T02:10:46.423Z,95033.00
2022-11-24T02:14:49.372Z,95049.00
2022-11-24T02:18:53.865Z,95046.00
2022-11-24T02:23:03.719Z,95057.00
2022-11-24T02:27:08.093Z,95056.00
2022-11-24T02:31:10.935Z,95064.00
2022-11-24T02:35:13.847Z,95055.00
2022-11-24T02:39:17.870Z,95056.00
2022-11-24T02:43:24.411Z,95063.00
2022-11-24T02:47:27.427Z,95060.00
2022-11-24T02:51:30.140Z,95062.00
2022-11-24T02:55:32.913Z,95065.00
2022-11-24T02:59:36.913Z,95068.00
2022-11-24T03:03:39.628Z,95063.00
2022-11-24T03:07:42.469Z,95068.00
2022-11-24T03:11:45.185Z,95080.00
2022-11-24T03:15:49.302Z,95080.00
2022-11-24T03:19:52.013Z,95086.00
2022-11-24T03:23:55.092Z,95078.00
2022-11-24T03:27:58.263Z,95091.00
2022-11-24T03:32:02.668Z,95105.00
2022-11-24T03:36:07.189Z,95107.00
2022-11-24T03:40:10.852Z,95100.00
2022-11-24T03:44:13.594Z,95103.00
2022-11-24T03:48:18.692Z,95110.00
2022-11-24T03:52:21.389Z,95104.00
2022-11-24T03:56:24.080Z,95112.00
2022-11-24T04:00:27.703Z,95112.00
2022-11-24T04:26:10.227Z,95123.00
2022-11-24T04:30:13.329Z,95131.00
2022-11-24T04:34:16.381Z,95132.00
2022-11-24T04:39:19.652Z,95132.00
2022-11-24T04:42:43.473Z,95130.00
2022-11-24T04:46:46.350Z,95143.00
2022-11-24T04:50:49.338Z,95142.00
2022-11-24T04:54:52.805Z,95139.00
2022-11-24T04:58:56.903Z,95150.00
2022-11-24T05:02:59.632Z,95152.00
2022-11-24T05:07:02.305Z,95168.00
2022-11-24T05:11:06.173Z,95175.00
2022-11-24T05:15:11.618Z,95185.00
2022-11-24T05:19:14.533Z,95180.00
2022-11-24T05:23:17.308Z,95185.00
2022-11-24T05:27:20.056Z,95190.00
2022-11-24T05:31:24.275Z,95198.00
2022-11-24T05:35:27.018Z,95201.00
2022-11-24T05:39:29.902Z,95201.00
2022-11-24T05:43:32.701Z,95195.00
2022-11-24T05:47:37.837Z,95208.00
2022-11-24T05:51:40.580Z,95196.00
2022-11-24T05:55:43.269Z,95212.00
2022-11-24T05:59:46.068Z,95223.00
2022-11-24T06:03:50.114Z,95229.00
2022-11-24T06:07:53.272Z,95223.00
2022-11-24T06:11:56.592Z,95241.00
2022-11-24T06:16:00.182Z,95241.00
2022-11-24T06:20:04.932Z,95249.00
2022-11-24T06:24:08.538Z,95242.00
2022-11-24T06:28:11.320Z,95248.00
2022-11-24T06:32:14.226Z,95258.00
2022-11-24T06:36:18.360Z,95268.00
2022-11-24T06:40:21.078Z,95266.00
2022-11-24T06:44:23.860Z,95262.00
2022-11-24T06:48:27.452Z,95273.00
2022-11-24T06:52:31.483Z,95275.00
2022-11-24T06:56:34.729Z,95279.00
2022-11-24T07:00:37.736Z,95279.00
2022-11-24T07:04:40.540Z,95283.00
2022-11-24T07:08:44.888Z,95286.00
2022-11-24T07:12:47.670Z,95286.00
2022-11-24T07:16:50.625Z,95285.00
2022-11-24T07:20:53.477Z,95279.00
2022-11-24T07:24:57.576Z,95274.00
2022-11-24T07:29:00.289Z,95285.00
2022-11-24T07:33:03.884Z,95283.00
2022-11-24T07:37:06.762Z,95291.00
2022-11-24T07:41:12.764Z,95299.00
2022-11-24T07:45:16.532Z,95299.00
2022-11-24T07:49:19.294Z,95293.00
2022-11-24T07:53:22.018Z,95298.00
2022-11-24T07:57:26.079Z,95300.00
2022-11-24T08:01:29.193Z,95292.00
2022-11-24T08:05:31.930Z,95291.00
2022-11-24T08:09:34.740Z,95288.00
2022-11-24T08:13:39.171Z,95281.00
2022-11-24T08:17:41.882Z,95288.00
2022-11-24T08:21:44.644Z,95294.00
2022-11-24T08:25:47.399Z,95297.00
2022-11-24T08:29:51.475Z,95311.00
2022-11-24T08:33:56.996Z,95301.00
2022-11-24T08:38:04.492Z,95308.00
2022-11-24T08:42:07.590Z,95308.00
2022-11-24T08:46:14.320Z,95311.00
2022-11-24T08:50:17.879Z,95307.00
2022-11-24T08:54:21.587Z,95302.00
2022-11-24T08:58:24.276Z,95298.00
2022-11-24T09:02:28.349Z,95302.00
2022-11-24T09:06:31.543Z,95311.00
2022-11-24T09:10:34.264Z,95300.00
2022-11-24T09:14:36.991Z,95309.00
2022-11-24T09:18:41.301Z,95311.00
2022-11-24T09:22:44.026Z,95316.00
2022-11-24T09:26:47.828Z,95313.00
2022-11-24T09:30:50.848Z,95307.00
2022-11-24T09:34:54.937Z,95304.00
2022-11-24T09:38:57.673Z,95310.00
2022-11-24T09:43:04.072Z,95315.00
2022-11-24T09:47:17.141Z,95323.00
2022-11-24T09:51:25.014Z,95314.00
2022-11-24T09:55:37.763Z,95316.00
2022-11-24T09:59:43.252Z,95331.00
2022-11-24T10:03:48.656Z,95333.00
2022-11-24T10:08:03.988Z,95340.00
2022-11-24T10:12:20.846Z,95334.00
2022-11-24T10:16:27.739Z,95370.00
2022-11-24T10:20:42.507Z,95374.00
2022-11-24T10:25:02.373Z,95363.00
2022-11-24T10:29:19.048Z,95377.00
2022-11-24T10:33:28.790Z,95379.00
2022-11-24T10:37:37.658Z,95383.00
2022-11-24T10:41:47.949Z,95376.00
2022-11-24T10:45:51.542Z,95384.00
2022-11-24T10:49:58.839Z,95389.00
2022-11-24T10:54:06.770Z,95379.00
2022-11-24T10:58:17.539Z,95384.00
2022-11-24T11:02:36.960Z,95386.00
2022-11-24T11:06:40.493Z,95390.00
2022-11-24T11:10:44.977Z,95394.00
2022-11-24T11:14:49.042Z,95385.00
2022-11-24T11:18:51.794Z,95396.00
2022-11-24T11:22:55.907Z,95387.00
2022-11-24T11:27:03.162Z,95395.00
2022-11-24T11:31:20.571Z,95397.00
2022-11-24T11:35:27.268Z,95395.00
2022-11-24T11:39:32.967Z,95405.00
2022-11-24T11:43:39.701Z,95403.00
2022-11-24T11:47:47.525Z,95405.00
2022-11-24T11:52:04.167Z,95396.00
2022-11-24T11:56:16.708Z,95403.00
2022-11-24T12:00:21.882Z,95402.00
2022-11-24T12:04:48.224Z,95404.00
2022-11-24T12:09:19.375Z,95403.00
2022-11-24T12:13:41.899Z,95406.00
2022-11-24T12:17:52.647Z,95409.00
2022-11-24T12:22:07.830Z,95415.00
2022-11-24T12:26:19.986Z,95420.00
2022-11-24T12:30:23.898Z,95424.00
2022-11-24T12:34:38.418Z,95419.00
2022-11-24T12:38:50.040Z,95417.00
2022-11-24T12:43:00.096Z,95417.00
2022-11-24T12:47:11.951Z,95415.00
2022-11-24T12:51:19.860Z,95417.00
2022-11-24T12:55:24.609Z,95420.00
2022-11-24T12:59:34.339Z,95424.00
2022-11-24T13:03:45.685Z,95428.00
2022-11-24T13:07:50.894Z,95428.00
2022-11-24T13:12:00.609Z,95429.00
2022-11-24T13:20:41.202Z,95426.00
2022-11-24T13:24:44.906Z,95438.00
2022-11-24T13:29:08.909Z,95434.00
2022-11-24T13:33:40.563Z,95446.00
2022-11-24T13:37:51.342Z,95438.00
2022-11-24T13:42:02.932Z,95443.00
2022-11-24T13:46:10.903Z,95449.00
2022-11-24T13:50:45.337Z,95439.00
2022-11-24T13:54:48.177Z,95447.00
2022-11-24T13:58:52.682Z,95450.00
2022-11-24T14:03:00.866Z,95462.00
2022-11-24T14:07:08.309Z,95467.00
2022-11-24T14:11:15.080Z,95473.00
2022-11-24T14:15:25.239Z,95479.00
2022-11-24T14:19:31.043Z,95473.00
2022-11-24T14:23:35.102Z,95481.00
2022-11-24T14:27:40.022Z,95477.00
2022-11-24T14:31:43.673Z,95493.00
2022-11-24T14:35:49.030Z,95493.00
2022-11-24T14:39:52.018Z,95498.00
2022-11-24T14:44:16.106Z,95502.00
2022-11-24T14:48:22.233Z,95502.00
2022-11-24T14:52:27.041Z,95507.00
2022-11-24T14:56:31.082Z,95522.00
2022-11-24T15:00:34.770Z,95516.00
2022-11-24T15:05:04.762Z,95511.00
2022-11-24T15:09:21.867Z,95519.00
2022-11-24T15:13:25.907Z,95520.00
2022-11-24T15:17:30.493Z,95517.00
2022-11-24T15:21:35.575Z,95518.00
2022-11-24T15:25:39.763Z,95521.00
2022-11-24T15:29:42.499Z,95515.00
2022-11-24T15:33:45.210Z,95510.00
2022-11-24T15:37:48.001Z,95520.00
2022-11-24T15:41:52.267Z,95521.00
2022-11-24T15:45:55.124Z,95514.00
2022-11-24T15:49:57.814Z,95512.00
2022-11-24T15:54:01.523Z,95522.00
2022-11-24T15:58:05.978Z,95522.00
2022-11-24T16:02:09.650Z,95528.00
2022-11-24T16:06:22.179Z,95532.00
2022-11-24T16:10:29.976Z,95543.00
2022-11-24T16:14:34.390Z,95536.00
2022-11-24T16:18:39.631Z,95542.00
2022-11-24T16:22:42.425Z,95541.00
2022-11-24T16:26:45.267Z,95532.00
2022-11-24T16:30:51.042Z,95541.00
2022-11-24T16:34:54.008Z,95547.00
2022-11-24T16:38:56.884Z,95544.00
2022-11-24T16:42:59.637Z,95550.00
2022-11-24T16:47:03.918Z,95555.00
2022-11-24T16:51:08.074Z,95554.00
2022-11-24T16:55:11.666Z,95548.00
2022-11-24T16:59:14.517Z,95548.00
2022-11-24T17:03:18.641Z,95562.00
2022-11-24T17:07:21.548Z,95550.00
2022-11-24T17:11:25.787Z,95553.00
2022-11-24T17:15:34.605Z,95560.00
2022-11-24T17:19:40.736Z,95564.00
2022-11-24T17:23:44.010Z,95573.00
2022-11-24T17:27:46.691Z,95566.00
2022-11-24T17:31:49.470Z,95571.00
2022-11-24T17:35:53.597Z,95570.00
2022-11-24T17:40:26.266Z,95569.00
2022-11-24T17:44:19.150Z,95567.00
2022-11-24T17:48:22.361Z,95576.00
2022-11-24T17:52:26.488Z,95569.00
2022-11-24T17:56:29.357Z,95563.00
2022-11-24T18:00:32.124Z,95557.00
2022-11-24T18:04:35.169Z,95570.00
2022-11-24T18:08:40.949Z,95560.00
2022-11-24T18:12:43.703Z,95561.00
2022-11-24T18:16:46.493Z,95567.00
2022-11-24T18:20:54.948Z,95558.00
2022-11-24T18:24:59.046Z,95565.00
2022-11-24T18:29:01.769Z,95567.00
2022-11-24T18:33:04.627Z,95569.00
2022-11-24T18:37:08.591Z,95559.00
2022-11-24T18:41:14.659Z,95572.00
2022-11-24T18:45:17.436Z,95570.00
2022-11-24T18:49:20.241Z,95569.00
2022-11-24T18:53:25.260Z,95566.00
2022-11-24T18:57:29.324Z,95567.00
2022-11-24T19:01:32.384Z,95560.00
2022-11-24T19:05:35.779Z,95570.00
2022-11-24T19:09:38.833Z,95552.00
2022-11-24T19:13:42.884Z,95559.00
2022-11-24T19:17:47.407Z,95555.00
2022-11-24T19:21:50.292Z,95548.00
2022-11-24T19:25:53.027Z,95542.00
2022-11-24T19:29:57.108Z,95543.00
2022-11-24T19:34:02.995Z,95549.00
2022-11-24T19:38:05.893Z,95543.00
2022-11-24T19:42:08.616Z,95538.00
2022-11-24T19:46:14.698Z,95546.00
2022-11-24T19:50:18.417Z,95549.00
2022-11-24T19:54:21.173Z,95554.00
2022-11-24T19:58:24.034Z,95559.00
2022-11-24T20:02:30.413Z,95557.00
2022-11-24T20:06:34.870Z,95559.00
2022-11-24T20:10:39.897Z,95552.00
2022-11-24T20:14:43.005Z,95552.00
2022-11-24T20:18:48.600Z,95553.00
2022-11-24T20:22:51.511Z,95558.00
2022-11-24T20:26:58.461Z,95557.00
2022-11-24T20:31:07.096Z,95555.00
2022-11-24T20:35:18.076Z,95557.00
2022-11-24T20:39:25.357Z,95560.00
2022-11-24T20:43:31.169Z,95559.00
2022-11-24T20:47:34.044Z,95553.00
2022-11-24T20:51:43.832Z,95550.00
2022-11-24T20:55:47.149Z,95558.00
2022-11-24T20:59:52.590Z,95548.00
2022-11-24T21:03:57.418Z,95540.00
2022-11-24T21:08:01.634Z,95538.00
2022-11-24T21:12:04.558Z,95534.00
2022-11-24T21:16:13.047Z,95539.00
2022-11-24T21:20:16.077Z,95546.00
2022-11-24T21:24:22.665Z,95527.00
2022-11-24T21:28:25.942Z,95525.00
2022-11-24T21:32:29.383Z,95530.00
2022-11-24T21:36:34.731Z,95525.00
2022-11-24T21:40:39.685Z,95527.00
2022-11-24T21:44:42.559Z,95534.00
2022-11-24T21:48:45.465Z,95541.00
2022-11-24T21:52:48.263Z,95539.00
2022-11-24T21:56:53.880Z,95540.00
2022-11-24T22:01:02.615Z,95545.00
2022-11-24T22:05:06.298Z,95538.00
2022-11-24T22:09:11.441Z,95534.00
2022-11-24T22:13:20.323Z,95538.00
2022-11-24T22:17:23.142Z,95530.00
2022-11-24T22:21:30.012Z,95531.00
2022-11-24T22:25:32.797Z,95534.00
2022-11-24T22:29:36.911Z,95539.00
2022-11-24T22:33:40.156Z,95534.00
2022-11-24T22:37:43.003Z,95525.00
2022-11-24T22:41:45.856Z,95536.00
2022-11-24T22:45:50.001Z,95537.00
2022-11-24T22:49:52.792Z,95528.00
2022-11-24T22:53:58.545Z,95537.00
2022-11-24T22:58:01.244Z,95527.00
2022-11-24T23:02:05.789Z,95522.00
2022-11-24T23:06:12.427Z,95525.00
2022-11-24T23:10:15.128Z,95523.00
2022-11-24T23:14:17.889Z,95518.00
2022-11-24T23:18:21.980Z,95513.00
2022-11-24T23:22:24.654Z,95500.00
2022-11-24T23:26:29.554Z,95497.00
2022-11-24T23:30:32.249Z,95499.00
2022-11-24T23:34:36.589Z,95510.00
2022-11-24T23:38:40.654Z,95516.00
2022-11-24T23:42:43.398Z,95512.00
2022-11-24T23:46:46.104Z,95522.00
2022-11-24T23:50:50.144Z,95522.00
2022-11-24T23:54:52.862Z,95522.00
2022-11-24T23:58:55.632Z,95519.00
